North Saint Paul, Minnesota
Current Conditions -  °F | °C
As of 2:53 PM on Thursday 20 Nov 2014 (Local Time) from KSTP Reporting Station
Clear Clear  
Wind Chill: -17°   Ceiling: Unl
Heat Index: -8°   Visibility: 10mi
Dew Point: -17°   Wind: 17mph
Humidity: 50%   Direction: 290°WNW
Pressure: 30.17"   Gusts: 22mph
Location:  45.0145°N, 93.0259°W
Report Text: KSTP 202053Z AUTO 29015G19KT 10SM CLR M08/M17 A3017 RMK AO2 SLP229 T10831172 53008
Loading
Personal Weather Stations






























Interactive Weather Map New forecast layout! Learn more

10-Day Weather Forecast

Advertisements
Track Severe Weather on mobile